AFR11U KJFK-LFPG
Flight info
| Callsign | AFR11U |
|---|---|
| Flight time | N/A |
| Altitude | 39000 |
| Route | MERIT DCT HFD DCT PUT DCT WITCH DCT ALLEX N535B UMESI/M084F400 NATU OLGON/N0489F410 DCT MORAG DCT NUCHU DCT SFD UM605 BIBAX |
| Aircraft | A359/H-SDE2E3GHIJ3J4J5LM1ORWXY/LB1D1 |
Departure
| Time | 2026-05-08 21:31 |
|---|---|
| Airport | John F. Kennedy International Airport (KJFK) |
Arrival
| Time | N/A |
|---|---|
| Airport | Charles de Gaulle International Airport (LFPG) |
| Time | Latitude | Longitude | Altitude | Speed | Heading |
|---|---|---|---|---|---|
| 2026-05-08 19:28 | 40.64386 | -73.77926 | 22 ft | 0 kts | 239° |
| 2026-05-08 21:15 | 40.64390 | -73.77916 | 23 ft | 4 kts | 239° |
| 2026-05-08 21:15 | 40.64404 | -73.77886 | 25 ft | 4 kts | 239° |
| 2026-05-08 21:15 | 40.64415 | -73.77860 | 26 ft | 3 kts | 241° |
| 2026-05-08 21:16 | 40.64426 | -73.77830 | 25 ft | 4 kts | 261° |
| 2026-05-08 21:16 | 40.64426 | -73.77797 | 25 ft | 4 kts | 285° |
| 2026-05-08 21:16 | 40.64416 | -73.77765 | 26 ft | 4 kts | 300° |
| 2026-05-08 21:16 | 40.64411 | -73.77752 | 26 ft | 4 kts | 300° |
| 2026-05-08 21:20 | 40.64409 | -73.77748 | 26 ft | 2 kts | 299° |
| 2026-05-08 21:20 | 40.64402 | -73.77731 | 26 ft | 0 kts | 300° |
| 2026-05-08 21:21 | 40.64393 | -73.77715 | 25 ft | 3 kts | 316° |
| 2026-05-08 21:21 | 40.64379 | -73.77701 | 24 ft | 2 kts | 329° |
| 2026-05-08 21:21 | 40.64365 | -73.77690 | 26 ft | 2 kts | 330° |
| 2026-05-08 21:22 | 40.64350 | -73.77680 | 25 ft | 2 kts | 330° |
| 2026-05-08 21:22 | 40.64336 | -73.77669 | 24 ft | 2 kts | 330° |
| 2026-05-08 21:22 | 40.64322 | -73.77659 | 23 ft | 2 kts | 330° |
| 2026-05-08 21:22 | 40.64308 | -73.77648 | 22 ft | 2 kts | 330° |
| 2026-05-08 21:23 | 40.64301 | -73.77643 | 22 ft | 0 kts | 329° |
| 2026-05-08 21:23 | 40.64287 | -73.77629 | 24 ft | 3 kts | 311° |
| 2026-05-08 21:23 | 40.64277 | -73.77610 | 23 ft | 3 kts | 291° |
| 2026-05-08 21:23 | 40.64272 | -73.77587 | 26 ft | 3 kts | 272° |
| 2026-05-08 21:24 | 40.64272 | -73.77578 | 27 ft | 0 kts | 266° |
| 2026-05-08 21:26 | 40.64272 | -73.77580 | 27 ft | 1 kts | 266° |
| 2026-05-08 21:26 | 40.64258 | -73.77595 | 25 ft | 3 kts | 191° |
| 2026-05-08 21:26 | 40.64196 | -73.77564 | 22 ft | 16 kts | 150° |
| 2026-05-08 21:26 | 40.64098 | -73.77471 | 22 ft | 10 kts | 134° |
| 2026-05-08 21:27 | 40.64093 | -73.77463 | 22 ft | 1 kts | 132° |
| 2026-05-08 21:27 | 40.64085 | -73.77453 | 22 ft | 3 kts | 133° |
| 2026-05-08 21:27 | 40.64052 | -73.77432 | 22 ft | 7 kts | 168° |
| 2026-05-08 21:27 | 40.63990 | -73.77451 | 22 ft | 12 kts | 204° |
| 2026-05-08 21:28 | 40.63902 | -73.77517 | 22 ft | 17 kts | 211° |
| 2026-05-08 21:28 | 40.63786 | -73.77609 | 23 ft | 22 kts | 211° |
| 2026-05-08 21:28 | 40.63643 | -73.77720 | 22 ft | 26 kts | 211° |
| 2026-05-08 21:28 | 40.63480 | -73.77847 | 22 ft | 29 kts | 209° |
| 2026-05-08 21:29 | 40.63303 | -73.77979 | 23 ft | 19 kts | 202° |
| 2026-05-08 21:29 | 40.63291 | -73.77985 | 23 ft | 0 kts | 200° |
| 2026-05-08 21:29 | 40.63286 | -73.77987 | 23 ft | 3 kts | 200° |
| 2026-05-08 21:29 | 40.63238 | -73.78008 | 25 ft | 11 kts | 200° |
| 2026-05-08 21:30 | 40.63219 | -73.78101 | 25 ft | 13 kts | 297° |
| 2026-05-08 21:30 | 40.63279 | -73.78237 | 27 ft | 27 kts | 301° |
| 2026-05-08 21:30 | 40.63481 | -73.78682 | 26 ft | 90 kts | 301° |
| 2026-05-08 21:30 | 40.63912 | -73.79621 | 30 ft | 148 kts | 300° |
| 2026-05-08 21:31 | 40.64485 | -73.80912 | 394 ft | 170 kts | 303° |
| 2026-05-08 21:31 | 40.64927 | -73.82439 | 881 ft | 191 kts | 272° |
| 2026-05-08 21:31 | 40.64403 | -73.84036 | 1769 ft | 197 kts | 226° |
| 2026-05-08 21:31 | 40.63664 | -73.84718 | 2399 ft | 197 kts | 214° |
| 2026-05-08 21:32 | 40.62490 | -73.85698 | 2964 ft | 203 kts | 219° |
| 2026-05-08 21:32 | 40.61376 | -73.86881 | 3558 ft | 206 kts | 225° |
| 2026-05-08 21:32 | 40.60182 | -73.87957 | 4194 ft | 212 kts | 210° |
| 2026-05-08 21:32 | 40.58714 | -73.88316 | 4782 ft | 226 kts | 181° |
| 2026-05-08 21:33 | 40.57131 | -73.87714 | 5149 ft | 251 kts | 161° |